sensor_id;sensor_type;location;lat;lon;timestamp;P1;durP1;ratioP1;P2;durP2;ratioP2
10461;SDS011;5278;42.656;23.374;2024-01-25T00:01:06;15.03;;;10.63;;
10461;SDS011;5278;42.656;23.374;2024-01-25T00:03:33;17.33;;;12.00;;
10461;SDS011;5278;42.656;23.374;2024-01-25T00:06:00;17.93;;;12.13;;
10461;SDS011;5278;42.656;23.374;2024-01-25T00:08:29;21.93;;;12.73;;
10461;SDS011;5278;42.656;23.374;2024-01-25T00:10:57;18.27;;;11.47;;
10461;SDS011;5278;42.656;23.374;2024-01-25T00:13:25;19.63;;;12.07;;
10461;SDS011;5278;42.656;23.374;2024-01-25T00:15:52;18.93;;;12.30;;
10461;SDS011;5278;42.656;23.374;2024-01-25T00:18:19;15.30;;;10.20;;
10461;SDS011;5278;42.656;23.374;2024-01-25T00:20:46;17.87;;;10.10;;
10461;SDS011;5278;42.656;23.374;2024-01-25T00:23:13;15.33;;;10.07;;
10461;SDS011;5278;42.656;23.374;2024-01-25T00:25:41;13.37;;;9.17;;
10461;SDS011;5278;42.656;23.374;2024-01-25T00:28:08;14.80;;;9.97;;
10461;SDS011;5278;42.656;23.374;2024-01-25T00:30:35;15.57;;;8.97;;
10461;SDS011;5278;42.656;23.374;2024-01-25T00:33:02;10.93;;;7.60;;
10461;SDS011;5278;42.656;23.374;2024-01-25T00:35:29;15.80;;;8.67;;
10461;SDS011;5278;42.656;23.374;2024-01-25T00:37:57;14.03;;;9.83;;
10461;SDS011;5278;42.656;23.374;2024-01-25T00:40:25;12.33;;;8.50;;
10461;SDS011;5278;42.656;23.374;2024-01-25T00:42:54;12.80;;;7.43;;
10461;SDS011;5278;42.656;23.374;2024-01-25T00:45:22;11.37;;;7.20;;
10461;SDS011;5278;42.656;23.374;2024-01-25T00:47:50;13.63;;;9.03;;
10461;SDS011;5278;42.656;23.374;2024-01-25T00:50:18;14.43;;;8.43;;
10461;SDS011;5278;42.656;23.374;2024-01-25T00:52:49;12.83;;;8.77;;
10461;SDS011;5278;42.656;23.374;2024-01-25T00:55:16;13.27;;;9.07;;
10461;SDS011;5278;42.656;23.374;2024-01-25T00:57:44;11.23;;;9.30;;
10461;SDS011;5278;42.656;23.374;2024-01-25T01:00:19;13.43;;;10.33;;
10461;SDS011;5278;42.656;23.374;2024-01-25T01:02:47;15.43;;;9.33;;
10461;SDS011;5278;42.656;23.374;2024-01-25T01:05:14;14.63;;;9.77;;
10461;SDS011;5278;42.656;23.374;2024-01-25T01:07:43;15.23;;;9.77;;
10461;SDS011;5278;42.656;23.374;2024-01-25T01:10:11;21.33;;;10.63;;
10461;SDS011;5278;42.656;23.374;2024-01-25T01:12:39;16.17;;;10.83;;
10461;SDS011;5278;42.656;23.374;2024-01-25T01:15:08;16.57;;;11.03;;
10461;SDS011;5278;42.656;23.374;2024-01-25T01:17:36;16.50;;;11.17;;
10461;SDS011;5278;42.656;23.374;2024-01-25T01:20:04;14.53;;;10.00;;
10461;SDS011;5278;42.656;23.374;2024-01-25T01:22:33;15.87;;;10.07;;
10461;SDS011;5278;42.656;23.374;2024-01-25T01:25:01;14.43;;;10.20;;
10461;SDS011;5278;42.656;23.374;2024-01-25T01:27:28;14.47;;;9.97;;
10461;SDS011;5278;42.656;23.374;2024-01-25T01:29:55;17.00;;;10.73;;
10461;SDS011;5278;42.656;23.374;2024-01-25T01:32:22;16.67;;;11.10;;
10461;SDS011;5278;42.656;23.374;2024-01-25T01:34:50;16.67;;;11.23;;
10461;SDS011;5278;42.656;23.374;2024-01-25T01:37:17;15.70;;;10.17;;
10461;SDS011;5278;42.656;23.374;2024-01-25T01:39:43;11.80;;;9.73;;
10461;SDS011;5278;42.656;23.374;2024-01-25T01:42:10;13.73;;;8.13;;
10461;SDS011;5278;42.656;23.374;2024-01-25T01:44:38;15.00;;;9.13;;
10461;SDS011;5278;42.656;23.374;2024-01-25T01:47:05;14.60;;;10.20;;
10461;SDS011;5278;42.656;23.374;2024-01-25T01:49:33;14.00;;;8.53;;
10461;SDS011;5278;42.656;23.374;2024-01-25T01:52:02;12.60;;;8.83;;
10461;SDS011;5278;42.656;23.374;2024-01-25T01:54:29;12.57;;;8.67;;
10461;SDS011;5278;42.656;23.374;2024-01-25T01:56:58;12.57;;;7.60;;
10461;SDS011;5278;42.656;23.374;2024-01-25T01:59:25;12.33;;;8.13;;
10461;SDS011;5278;42.656;23.374;2024-01-25T02:01:54;11.20;;;7.60;;
10461;SDS011;5278;42.656;23.374;2024-01-25T02:04:21;10.63;;;7.70;;
10461;SDS011;5278;42.656;23.374;2024-01-25T02:06:47;11.37;;;7.53;;
10461;SDS011;5278;42.656;23.374;2024-01-25T02:09:16;11.30;;;6.97;;
10461;SDS011;5278;42.656;23.374;2024-01-25T02:11:43;11.07;;;7.13;;
10461;SDS011;5278;42.656;23.374;2024-01-25T02:14:09;9.63;;;6.97;;
10461;SDS011;5278;42.656;23.374;2024-01-25T02:16:38;12.63;;;8.17;;
10461;SDS011;5278;42.656;23.374;2024-01-25T02:19:10;19.03;;;9.17;;
10461;SDS011;5278;42.656;23.374;2024-01-25T02:21:37;13.73;;;8.53;;
10461;SDS011;5278;42.656;23.374;2024-01-25T02:24:06;14.17;;;8.10;;
10461;SDS011;5278;42.656;23.374;2024-01-25T02:26:33;14.50;;;9.53;;
10461;SDS011;5278;42.656;23.374;2024-01-25T02:29:01;16.07;;;10.93;;
10461;SDS011;5278;42.656;23.374;2024-01-25T02:31:30;15.63;;;10.17;;
10461;SDS011;5278;42.656;23.374;2024-01-25T02:33:57;19.47;;;12.00;;
10461;SDS011;5278;42.656;23.374;2024-01-25T02:36:24;19.00;;;11.47;;
10461;SDS011;5278;42.656;23.374;2024-01-25T02:38:51;19.27;;;12.47;;
10461;SDS011;5278;42.656;23.374;2024-01-25T02:41:21;15.17;;;11.27;;
10461;SDS011;5278;42.656;23.374;2024-01-25T02:43:48;20.33;;;11.53;;
10461;SDS011;5278;42.656;23.374;2024-01-25T02:46:17;18.23;;;11.53;;
10461;SDS011;5278;42.656;23.374;2024-01-25T02:48:44;16.03;;;10.67;;
10461;SDS011;5278;42.656;23.374;2024-01-25T02:51:11;16.13;;;10.43;;
10461;SDS011;5278;42.656;23.374;2024-01-25T02:53:39;17.77;;;10.73;;
10461;SDS011;5278;42.656;23.374;2024-01-25T02:56:06;15.40;;;10.03;;
10461;SDS011;5278;42.656;23.374;2024-01-25T02:58:35;17.50;;;10.37;;
10461;SDS011;5278;42.656;23.374;2024-01-25T03:01:02;13.57;;;9.20;;
10461;SDS011;5278;42.656;23.374;2024-01-25T03:03:29;14.83;;;10.13;;
10461;SDS011;5278;42.656;23.374;2024-01-25T03:05:55;18.27;;;9.70;;
10461;SDS011;5278;42.656;23.374;2024-01-25T03:08:22;16.77;;;10.40;;
10461;SDS011;5278;42.656;23.374;2024-01-25T03:10:50;16.87;;;11.27;;
10461;SDS011;5278;42.656;23.374;2024-01-25T03:13:17;20.30;;;10.07;;
10461;SDS011;5278;42.656;23.374;2024-01-25T03:15:46;14.93;;;9.07;;
10461;SDS011;5278;42.656;23.374;2024-01-25T03:18:13;14.87;;;9.60;;
10461;SDS011;5278;42.656;23.374;2024-01-25T03:20:40;10.53;;;6.50;;
10461;SDS011;5278;42.656;23.374;2024-01-25T03:23:07;7.33;;;5.60;;
10461;SDS011;5278;42.656;23.374;2024-01-25T03:25:34;4.27;;;2.30;;
10461;SDS011;5278;42.656;23.374;2024-01-25T03:28:00;4.60;;;1.90;;
10461;SDS011;5278;42.656;23.374;2024-01-25T03:30:28;1.37;;;1.10;;
10461;SDS011;5278;42.656;23.374;2024-01-25T03:32:56;2.03;;;0.87;;
10461;SDS011;5278;42.656;23.374;2024-01-25T03:35:23;1.33;;;1.07;;
10461;SDS011;5278;42.656;23.374;2024-01-25T03:37:50;1.03;;;1.00;;
10461;SDS011;5278;42.656;23.374;2024-01-25T03:40:17;1.17;;;1.07;;
10461;SDS011;5278;42.656;23.374;2024-01-25T03:42:45;1.43;;;1.20;;
10461;SDS011;5278;42.656;23.374;2024-01-25T03:45:12;2.80;;;1.13;;
10461;SDS011;5278;42.656;23.374;2024-01-25T03:47:39;1.40;;;0.93;;
10461;SDS011;5278;42.656;23.374;2024-01-25T03:50:07;1.10;;;1.00;;
10461;SDS011;5278;42.656;23.374;2024-01-25T03:52:35;1.10;;;1.00;;
10461;SDS011;5278;42.656;23.374;2024-01-25T03:55:02;1.23;;;1.10;;
10461;SDS011;5278;42.656;23.374;2024-01-25T03:57:29;1.20;;;1.10;;
10461;SDS011;5278;42.656;23.374;2024-01-25T03:59:56;1.27;;;1.00;;
10461;SDS011;5278;42.656;23.374;2024-01-25T04:02:23;3.00;;;1.10;;
10461;SDS011;5278;42.656;23.374;2024-01-25T04:04:51;2.50;;;1.43;;
10461;SDS011;5278;42.656;23.374;2024-01-25T04:07:19;1.30;;;1.20;;
10461;SDS011;5278;42.656;23.374;2024-01-25T04:09:46;2.73;;;1.50;;
10461;SDS011;5278;42.656;23.374;2024-01-25T04:12:14;0.90;;;0.90;;
10461;SDS011;5278;42.656;23.374;2024-01-25T04:14:41;1.63;;;1.20;;
10461;SDS011;5278;42.656;23.374;2024-01-25T04:17:07;1.33;;;1.03;;
10461;SDS011;5278;42.656;23.374;2024-01-25T04:19:35;1.27;;;1.17;;
10461;SDS011;5278;42.656;23.374;2024-01-25T04:22:02;1.57;;;1.20;;
10461;SDS011;5278;42.656;23.374;2024-01-25T04:24:31;1.43;;;1.20;;
10461;SDS011;5278;42.656;23.374;2024-01-25T04:26:59;1.57;;;1.37;;
10461;SDS011;5278;42.656;23.374;2024-01-25T04:29:26;2.13;;;1.10;;
10461;SDS011;5278;42.656;23.374;2024-01-25T04:31:52;1.40;;;1.30;;
10461;SDS011;5278;42.656;23.374;2024-01-25T04:34:19;1.63;;;1.50;;
10461;SDS011;5278;42.656;23.374;2024-01-25T04:36:46;4.37;;;2.00;;
10461;SDS011;5278;42.656;23.374;2024-01-25T04:39:13;2.13;;;1.70;;
10461;SDS011;5278;42.656;23.374;2024-01-25T04:41:41;2.97;;;1.40;;
10461;SDS011;5278;42.656;23.374;2024-01-25T04:44:09;2.50;;;1.57;;
10461;SDS011;5278;42.656;23.374;2024-01-25T04:46:36;3.23;;;1.80;;
10461;SDS011;5278;42.656;23.374;2024-01-25T04:49:02;2.67;;;1.80;;
10461;SDS011;5278;42.656;23.374;2024-01-25T04:51:29;2.13;;;1.80;;
10461;SDS011;5278;42.656;23.374;2024-01-25T04:53:58;3.83;;;2.50;;
10461;SDS011;5278;42.656;23.374;2024-01-25T04:56:24;3.27;;;2.33;;
10461;SDS011;5278;42.656;23.374;2024-01-25T04:58:55;3.37;;;2.30;;
10461;SDS011;5278;42.656;23.374;2024-01-25T05:01:22;3.40;;;2.27;;
10461;SDS011;5278;42.656;23.374;2024-01-25T05:03:49;4.73;;;2.90;;
10461;SDS011;5278;42.656;23.374;2024-01-25T05:06:15;3.37;;;2.47;;
10461;SDS011;5278;42.656;23.374;2024-01-25T05:08:44;5.07;;;3.10;;
10461;SDS011;5278;42.656;23.374;2024-01-25T05:11:11;4.73;;;2.83;;
10461;SDS011;5278;42.656;23.374;2024-01-25T05:13:38;4.70;;;2.87;;
10461;SDS011;5278;42.656;23.374;2024-01-25T05:16:07;5.63;;;2.93;;
10461;SDS011;5278;42.656;23.374;2024-01-25T05:18:34;4.67;;;3.03;;
10461;SDS011;5278;42.656;23.374;2024-01-25T05:21:01;2.93;;;2.50;;
10461;SDS011;5278;42.656;23.374;2024-01-25T05:23:29;3.60;;;2.53;;
10461;SDS011;5278;42.656;23.374;2024-01-25T05:25:56;4.27;;;2.30;;
10461;SDS011;5278;42.656;23.374;2024-01-25T05:28:22;3.50;;;2.53;;
10461;SDS011;5278;42.656;23.374;2024-01-25T05:30:52;4.53;;;2.37;;
10461;SDS011;5278;42.656;23.374;2024-01-25T05:33:20;2.50;;;2.03;;
10461;SDS011;5278;42.656;23.374;2024-01-25T05:35:47;4.27;;;1.73;;
10461;SDS011;5278;42.656;23.374;2024-01-25T05:38:14;3.47;;;1.80;;
10461;SDS011;5278;42.656;23.374;2024-01-25T05:40:41;3.47;;;1.87;;
10461;SDS011;5278;42.656;23.374;2024-01-25T05:43:08;3.23;;;1.93;;
10461;SDS011;5278;42.656;23.374;2024-01-25T05:45:35;4.03;;;2.03;;
10461;SDS011;5278;42.656;23.374;2024-01-25T05:48:02;4.33;;;2.20;;
10461;SDS011;5278;42.656;23.374;2024-01-25T05:50:30;2.53;;;1.67;;
10461;SDS011;5278;42.656;23.374;2024-01-25T05:52:58;2.53;;;1.40;;
10461;SDS011;5278;42.656;23.374;2024-01-25T05:55:25;4.23;;;1.90;;
10461;SDS011;5278;42.656;23.374;2024-01-25T05:57:51;3.53;;;1.80;;
10461;SDS011;5278;42.656;23.374;2024-01-25T06:00:18;6.50;;;2.50;;
10461;SDS011;5278;42.656;23.374;2024-01-25T06:02:46;2.43;;;1.50;;
10461;SDS011;5278;42.656;23.374;2024-01-25T06:05:13;4.50;;;1.80;;
10461;SDS011;5278;42.656;23.374;2024-01-25T06:07:41;5.83;;;1.60;;
10461;SDS011;5278;42.656;23.374;2024-01-25T06:10:09;2.07;;;1.67;;
10461;SDS011;5278;42.656;23.374;2024-01-25T06:12:36;4.23;;;2.20;;
10461;SDS011;5278;42.656;23.374;2024-01-25T06:15:05;2.87;;;2.00;;
10461;SDS011;5278;42.656;23.374;2024-01-25T06:17:34;2.77;;;1.70;;
10461;SDS011;5278;42.656;23.374;2024-01-25T06:20:01;2.37;;;1.70;;
10461;SDS011;5278;42.656;23.374;2024-01-25T06:22:30;5.23;;;2.77;;
10461;SDS011;5278;42.656;23.374;2024-01-25T06:24:58;3.80;;;1.77;;
10461;SDS011;5278;42.656;23.374;2024-01-25T06:27:25;3.50;;;1.80;;
10461;SDS011;5278;42.656;23.374;2024-01-25T06:29:51;2.87;;;1.90;;
10461;SDS011;5278;42.656;23.374;2024-01-25T06:32:18;7.53;;;1.83;;
10461;SDS011;5278;42.656;23.374;2024-01-25T06:34:45;1.77;;;1.63;;
10461;SDS011;5278;42.656;23.374;2024-01-25T06:37:12;2.00;;;1.80;;
10461;SDS011;5278;42.656;23.374;2024-01-25T06:39:40;5.50;;;2.07;;
10461;SDS011;5278;42.656;23.374;2024-01-25T06:42:10;4.70;;;1.93;;
10461;SDS011;5278;42.656;23.374;2024-01-25T06:44:38;4.63;;;2.10;;
10461;SDS011;5278;42.656;23.374;2024-01-25T06:47:05;4.33;;;1.80;;
10461;SDS011;5278;42.656;23.374;2024-01-25T06:49:32;5.97;;;2.27;;
10461;SDS011;5278;42.656;23.374;2024-01-25T06:51:59;4.23;;;2.27;;
10461;SDS011;5278;42.656;23.374;2024-01-25T06:54:26;2.97;;;1.97;;
10461;SDS011;5278;42.656;23.374;2024-01-25T06:56:53;5.97;;;2.00;;
10461;SDS011;5278;42.656;23.374;2024-01-25T06:59:23;4.90;;;2.67;;
10461;SDS011;5278;42.656;23.374;2024-01-25T07:01:51;4.23;;;2.53;;
10461;SDS011;5278;42.656;23.374;2024-01-25T07:04:18;4.17;;;2.07;;
10461;SDS011;5278;42.656;23.374;2024-01-25T07:06:45;6.87;;;2.83;;
10461;SDS011;5278;42.656;23.374;2024-01-25T07:09:12;2.77;;;2.07;;
10461;SDS011;5278;42.656;23.374;2024-01-25T07:11:38;3.90;;;2.23;;
10461;SDS011;5278;42.656;23.374;2024-01-25T07:14:06;4.50;;;2.33;;
10461;SDS011;5278;42.656;23.374;2024-01-25T07:16:34;3.10;;;1.60;;
10461;SDS011;5278;42.656;23.374;2024-01-25T07:19:01;3.47;;;2.67;;
10461;SDS011;5278;42.656;23.374;2024-01-25T07:21:28;4.47;;;2.30;;
10461;SDS011;5278;42.656;23.374;2024-01-25T07:23:57;4.83;;;2.20;;
10461;SDS011;5278;42.656;23.374;2024-01-25T07:26:24;5.67;;;2.53;;
10461;SDS011;5278;42.656;23.374;2024-01-25T07:28:50;4.37;;;2.30;;
10461;SDS011;5278;42.656;23.374;2024-01-25T07:31:23;5.47;;;2.20;;
10461;SDS011;5278;42.656;23.374;2024-01-25T07:33:51;4.30;;;2.03;;
10461;SDS011;5278;42.656;23.374;2024-01-25T07:36:20;4.93;;;2.27;;
10461;SDS011;5278;42.656;23.374;2024-01-25T07:38:47;6.13;;;2.30;;
10461;SDS011;5278;42.656;23.374;2024-01-25T07:41:14;6.90;;;2.53;;
10461;SDS011;5278;42.656;23.374;2024-01-25T07:43:42;7.83;;;2.80;;
10461;SDS011;5278;42.656;23.374;2024-01-25T07:46:09;3.30;;;2.40;;
10461;SDS011;5278;42.656;23.374;2024-01-25T07:48:36;6.37;;;2.70;;
10461;SDS011;5278;42.656;23.374;2024-01-25T07:51:12;6.80;;;2.47;;
10461;SDS011;5278;42.656;23.374;2024-01-25T07:53:39;3.50;;;2.20;;
10461;SDS011;5278;42.656;23.374;2024-01-25T07:56:06;3.87;;;1.97;;
10461;SDS011;5278;42.656;23.374;2024-01-25T07:58:36;3.67;;;2.77;;
10461;SDS011;5278;42.656;23.374;2024-01-25T08:01:05;3.70;;;2.60;;
10461;SDS011;5278;42.656;23.374;2024-01-25T08:03:32;4.57;;;2.60;;
10461;SDS011;5278;42.656;23.374;2024-01-25T08:05:59;4.97;;;2.40;;
10461;SDS011;5278;42.656;23.374;2024-01-25T08:08:29;6.13;;;2.60;;
10461;SDS011;5278;42.656;23.374;2024-01-25T08:10:56;3.87;;;2.50;;
10461;SDS011;5278;42.656;23.374;2024-01-25T08:13:23;8.37;;;2.70;;
10461;SDS011;5278;42.656;23.374;2024-01-25T08:15:50;4.20;;;2.73;;
10461;SDS011;5278;42.656;23.374;2024-01-25T08:18:17;4.13;;;2.30;;
10461;SDS011;5278;42.656;23.374;2024-01-25T08:20:48;8.07;;;2.60;;
10461;SDS011;5278;42.656;23.374;2024-01-25T08:23:15;3.13;;;2.50;;
10461;SDS011;5278;42.656;23.374;2024-01-25T08:25:45;9.77;;;3.00;;
10461;SDS011;5278;42.656;23.374;2024-01-25T08:28:16;5.07;;;2.53;;
10461;SDS011;5278;42.656;23.374;2024-01-25T08:30:43;7.10;;;2.83;;
10461;SDS011;5278;42.656;23.374;2024-01-25T08:33:10;4.67;;;2.40;;
10461;SDS011;5278;42.656;23.374;2024-01-25T08:35:37;4.87;;;2.80;;
10461;SDS011;5278;42.656;23.374;2024-01-25T08:38:06;4.63;;;2.60;;
10461;SDS011;5278;42.656;23.374;2024-01-25T08:40:33;6.63;;;2.63;;
10461;SDS011;5278;42.656;23.374;2024-01-25T08:43:01;4.80;;;2.57;;
10461;SDS011;5278;42.656;23.374;2024-01-25T08:45:29;10.00;;;2.80;;
10461;SDS011;5278;42.656;23.374;2024-01-25T08:47:56;3.40;;;2.27;;
10461;SDS011;5278;42.656;23.374;2024-01-25T08:50:24;5.77;;;2.63;;
10461;SDS011;5278;42.656;23.374;2024-01-25T08:52:51;5.93;;;2.30;;
10461;SDS011;5278;42.656;23.374;2024-01-25T08:55:17;5.60;;;2.87;;
10461;SDS011;5278;42.656;23.374;2024-01-25T08:57:44;5.70;;;2.50;;
10461;SDS011;5278;42.656;23.374;2024-01-25T09:00:13;6.57;;;2.90;;
10461;SDS011;5278;42.656;23.374;2024-01-25T09:02:40;5.67;;;2.83;;
10461;SDS011;5278;42.656;23.374;2024-01-25T09:05:07;3.90;;;2.63;;
10461;SDS011;5278;42.656;23.374;2024-01-25T09:07:34;6.20;;;2.27;;
10461;SDS011;5278;42.656;23.374;2024-01-25T09:10:01;6.83;;;2.90;;
10461;SDS011;5278;42.656;23.374;2024-01-25T09:12:29;5.30;;;2.50;;
10461;SDS011;5278;42.656;23.374;2024-01-25T09:14:56;5.53;;;2.60;;
10461;SDS011;5278;42.656;23.374;2024-01-25T09:17:24;4.97;;;2.87;;
10461;SDS011;5278;42.656;23.374;2024-01-25T09:19:51;5.20;;;2.40;;
10461;SDS011;5278;42.656;23.374;2024-01-25T09:22:18;7.00;;;3.00;;
10461;SDS011;5278;42.656;23.374;2024-01-25T09:24:45;5.23;;;2.67;;
10461;SDS011;5278;42.656;23.374;2024-01-25T09:27:13;6.27;;;2.50;;
10461;SDS011;5278;42.656;23.374;2024-01-25T09:29:42;8.10;;;2.90;;
10461;SDS011;5278;42.656;23.374;2024-01-25T09:32:09;4.77;;;2.57;;
10461;SDS011;5278;42.656;23.374;2024-01-25T09:34:39;3.53;;;2.63;;
10461;SDS011;5278;42.656;23.374;2024-01-25T09:37:05;5.43;;;2.40;;
10461;SDS011;5278;42.656;23.374;2024-01-25T09:39:32;7.20;;;2.93;;
10461;SDS011;5278;42.656;23.374;2024-01-25T09:42:00;6.43;;;2.63;;
10461;SDS011;5278;42.656;23.374;2024-01-25T09:44:28;7.40;;;2.80;;
10461;SDS011;5278;42.656;23.374;2024-01-25T09:46:55;7.83;;;2.93;;
10461;SDS011;5278;42.656;23.374;2024-01-25T09:49:23;6.30;;;2.80;;
10461;SDS011;5278;42.656;23.374;2024-01-25T09:51:51;4.80;;;2.27;;
10461;SDS011;5278;42.656;23.374;2024-01-25T09:54:18;7.20;;;2.77;;
10461;SDS011;5278;42.656;23.374;2024-01-25T09:56:45;5.50;;;2.63;;
10461;SDS011;5278;42.656;23.374;2024-01-25T09:59:13;6.33;;;3.03;;
10461;SDS011;5278;42.656;23.374;2024-01-25T10:01:40;8.10;;;2.87;;
10461;SDS011;5278;42.656;23.374;2024-01-25T10:04:07;6.13;;;2.70;;
10461;SDS011;5278;42.656;23.374;2024-01-25T10:06:34;6.10;;;3.10;;
10461;SDS011;5278;42.656;23.374;2024-01-25T10:09:02;4.60;;;2.77;;
10461;SDS011;5278;42.656;23.374;2024-01-25T10:11:34;6.27;;;2.97;;
10461;SDS011;5278;42.656;23.374;2024-01-25T10:14:03;5.67;;;2.63;;
10461;SDS011;5278;42.656;23.374;2024-01-25T10:16:31;7.57;;;3.77;;
10461;SDS011;5278;42.656;23.374;2024-01-25T10:18:58;4.40;;;3.20;;
10461;SDS011;5278;42.656;23.374;2024-01-25T10:21:25;6.50;;;3.40;;
10461;SDS011;5278;42.656;23.374;2024-01-25T10:23:52;10.37;;;4.70;;
10461;SDS011;5278;42.656;23.374;2024-01-25T10:26:25;5.03;;;3.47;;
10461;SDS011;5278;42.656;23.374;2024-01-25T10:28:53;8.37;;;4.17;;
10461;SDS011;5278;42.656;23.374;2024-01-25T10:31:22;4.73;;;2.60;;
10461;SDS011;5278;42.656;23.374;2024-01-25T10:33:50;4.53;;;3.30;;
10461;SDS011;5278;42.656;23.374;2024-01-25T10:36:18;6.27;;;3.83;;
10461;SDS011;5278;42.656;23.374;2024-01-25T10:38:48;5.30;;;3.10;;
10461;SDS011;5278;42.656;23.374;2024-01-25T10:41:16;6.80;;;3.20;;
10461;SDS011;5278;42.656;23.374;2024-01-25T10:43:44;7.03;;;3.10;;
10461;SDS011;5278;42.656;23.374;2024-01-25T10:46:11;8.37;;;3.47;;
10461;SDS011;5278;42.656;23.374;2024-01-25T10:48:38;4.47;;;3.07;;
10461;SDS011;5278;42.656;23.374;2024-01-25T10:51:06;4.87;;;3.20;;
10461;SDS011;5278;42.656;23.374;2024-01-25T10:53:34;5.30;;;2.83;;
10461;SDS011;5278;42.656;23.374;2024-01-25T10:56:02;6.73;;;3.00;;
10461;SDS011;5278;42.656;23.374;2024-01-25T10:58:31;5.33;;;3.43;;
10461;SDS011;5278;42.656;23.374;2024-01-25T11:01:02;6.17;;;3.07;;
10461;SDS011;5278;42.656;23.374;2024-01-25T11:03:29;6.63;;;3.17;;
10461;SDS011;5278;42.656;23.374;2024-01-25T11:06:05;4.93;;;2.80;;
10461;SDS011;5278;42.656;23.374;2024-01-25T11:08:34;7.30;;;3.53;;
10461;SDS011;5278;42.656;23.374;2024-01-25T11:11:03;5.93;;;3.17;;
10461;SDS011;5278;42.656;23.374;2024-01-25T11:13:33;9.40;;;3.37;;
10461;SDS011;5278;42.656;23.374;2024-01-25T11:16:12;5.00;;;3.17;;
10461;SDS011;5278;42.656;23.374;2024-01-25T11:18:49;6.70;;;3.40;;
10461;SDS011;5278;42.656;23.374;2024-01-25T11:21:24;5.83;;;2.93;;
10461;SDS011;5278;42.656;23.374;2024-01-25T11:23:59;8.03;;;2.97;;
10461;SDS011;5278;42.656;23.374;2024-01-25T11:26:29;3.73;;;2.77;;
10461;SDS011;5278;42.656;23.374;2024-01-25T11:28:58;6.90;;;3.50;;
10461;SDS011;5278;42.656;23.374;2024-01-25T11:31:27;5.50;;;2.60;;
10461;SDS011;5278;42.656;23.374;2024-01-25T11:33:56;6.97;;;3.87;;
10461;SDS011;5278;42.656;23.374;2024-01-25T11:36:24;7.77;;;3.37;;
10461;SDS011;5278;42.656;23.374;2024-01-25T11:38:51;8.10;;;3.73;;
10461;SDS011;5278;42.656;23.374;2024-01-25T11:41:18;7.77;;;3.00;;
10461;SDS011;5278;42.656;23.374;2024-01-25T11:43:44;4.77;;;3.00;;
10461;SDS011;5278;42.656;23.374;2024-01-25T11:46:11;5.87;;;2.90;;
10461;SDS011;5278;42.656;23.374;2024-01-25T11:48:40;5.73;;;2.67;;
10461;SDS011;5278;42.656;23.374;2024-01-25T11:51:09;5.90;;;3.37;;
10461;SDS011;5278;42.656;23.374;2024-01-25T11:53:36;9.67;;;3.10;;
10461;SDS011;5278;42.656;23.374;2024-01-25T11:56:03;9.40;;;2.60;;
10461;SDS011;5278;42.656;23.374;2024-01-25T11:58:32;4.37;;;2.83;;
10461;SDS011;5278;42.656;23.374;2024-01-25T12:00:59;7.73;;;3.07;;
10461;SDS011;5278;42.656;23.374;2024-01-25T12:03:27;6.30;;;3.03;;
10461;SDS011;5278;42.656;23.374;2024-01-25T12:05:56;3.37;;;2.40;;
10461;SDS011;5278;42.656;23.374;2024-01-25T12:08:24;8.00;;;2.83;;
10461;SDS011;5278;42.656;23.374;2024-01-25T12:11:01;9.60;;;2.40;;
10461;SDS011;5278;42.656;23.374;2024-01-25T12:13:35;6.03;;;2.70;;
10461;SDS011;5278;42.656;23.374;2024-01-25T12:16:09;5.47;;;2.67;;
10461;SDS011;5278;42.656;23.374;2024-01-25T12:18:37;8.77;;;3.30;;
10461;SDS011;5278;42.656;23.374;2024-01-25T12:21:07;10.80;;;3.10;;
10461;SDS011;5278;42.656;23.374;2024-01-25T12:23:34;8.30;;;3.00;;
10461;SDS011;5278;42.656;23.374;2024-01-25T12:26:03;6.77;;;2.90;;
10461;SDS011;5278;42.656;23.374;2024-01-25T12:28:31;8.27;;;3.23;;
10461;SDS011;5278;42.656;23.374;2024-01-25T12:30:58;5.43;;;2.60;;
10461;SDS011;5278;42.656;23.374;2024-01-25T12:33:25;7.27;;;2.50;;
10461;SDS011;5278;42.656;23.374;2024-01-25T12:35:52;5.57;;;3.00;;
10461;SDS011;5278;42.656;23.374;2024-01-25T12:38:23;6.10;;;2.27;;
10461;SDS011;5278;42.656;23.374;2024-01-25T12:40:51;6.20;;;3.00;;
10461;SDS011;5278;42.656;23.374;2024-01-25T12:43:19;3.77;;;2.40;;
10461;SDS011;5278;42.656;23.374;2024-01-25T12:45:47;7.17;;;3.10;;
10461;SDS011;5278;42.656;23.374;2024-01-25T12:48:14;5.10;;;2.30;;
10461;SDS011;5278;42.656;23.374;2024-01-25T12:50:42;4.37;;;2.33;;
10461;SDS011;5278;42.656;23.374;2024-01-25T12:53:10;4.83;;;2.40;;
10461;SDS011;5278;42.656;23.374;2024-01-25T12:55:39;6.63;;;2.90;;
10461;SDS011;5278;42.656;23.374;2024-01-25T12:58:06;4.70;;;2.57;;
10461;SDS011;5278;42.656;23.374;2024-01-25T13:00:33;5.33;;;2.60;;
10461;SDS011;5278;42.656;23.374;2024-01-25T13:03:00;5.87;;;2.33;;
10461;SDS011;5278;42.656;23.374;2024-01-25T13:05:28;7.67;;;3.13;;
10461;SDS011;5278;42.656;23.374;2024-01-25T13:07:59;6.87;;;2.93;;
10461;SDS011;5278;42.656;23.374;2024-01-25T13:10:25;5.80;;;2.80;;
10461;SDS011;5278;42.656;23.374;2024-01-25T13:12:53;7.50;;;2.80;;
10461;SDS011;5278;42.656;23.374;2024-01-25T13:15:20;5.77;;;2.90;;
10461;SDS011;5278;42.656;23.374;2024-01-25T13:17:47;6.40;;;2.60;;
10461;SDS011;5278;42.656;23.374;2024-01-25T13:20:14;5.87;;;2.63;;
10461;SDS011;5278;42.656;23.374;2024-01-25T13:22:41;4.73;;;2.93;;
10461;SDS011;5278;42.656;23.374;2024-01-25T13:25:08;5.60;;;2.47;;
10461;SDS011;5278;42.656;23.374;2024-01-25T13:27:36;6.17;;;2.93;;
10461;SDS011;5278;42.656;23.374;2024-01-25T13:30:05;4.87;;;2.53;;
10461;SDS011;5278;42.656;23.374;2024-01-25T13:32:32;8.90;;;2.67;;
10461;SDS011;5278;42.656;23.374;2024-01-25T13:34:59;6.90;;;2.60;;
10461;SDS011;5278;42.656;23.374;2024-01-25T13:37:25;4.80;;;2.73;;
10461;SDS011;5278;42.656;23.374;2024-01-25T13:39:52;8.00;;;2.97;;
10461;SDS011;5278;42.656;23.374;2024-01-25T13:42:19;4.57;;;2.40;;
10461;SDS011;5278;42.656;23.374;2024-01-25T13:44:46;6.83;;;3.47;;
10461;SDS011;5278;42.656;23.374;2024-01-25T13:47:14;7.23;;;2.90;;
10461;SDS011;5278;42.656;23.374;2024-01-25T13:49:41;6.10;;;2.43;;
10461;SDS011;5278;42.656;23.374;2024-01-25T13:52:07;5.43;;;2.87;;
10461;SDS011;5278;42.656;23.374;2024-01-25T13:54:43;9.67;;;3.00;;
10461;SDS011;5278;42.656;23.374;2024-01-25T13:57:09;5.17;;;2.60;;
10461;SDS011;5278;42.656;23.374;2024-01-25T13:59:36;4.80;;;2.63;;
10461;SDS011;5278;42.656;23.374;2024-01-25T14:02:04;6.70;;;2.57;;
10461;SDS011;5278;42.656;23.374;2024-01-25T14:04:33;6.20;;;2.90;;
10461;SDS011;5278;42.656;23.374;2024-01-25T14:06:59;7.53;;;2.97;;
10461;SDS011;5278;42.656;23.374;2024-01-25T14:09:27;13.63;;;2.77;;
10461;SDS011;5278;42.656;23.374;2024-01-25T14:11:56;4.60;;;2.57;;
10461;SDS011;5278;42.656;23.374;2024-01-25T14:14:24;5.30;;;2.50;;
10461;SDS011;5278;42.656;23.374;2024-01-25T14:16:51;5.00;;;2.70;;
10461;SDS011;5278;42.656;23.374;2024-01-25T14:19:18;7.07;;;3.13;;
10461;SDS011;5278;42.656;23.374;2024-01-25T14:21:47;9.50;;;3.23;;
10461;SDS011;5278;42.656;23.374;2024-01-25T14:24:14;8.13;;;2.57;;
10461;SDS011;5278;42.656;23.374;2024-01-25T14:26:41;8.70;;;3.20;;
10461;SDS011;5278;42.656;23.374;2024-01-25T14:29:11;5.33;;;2.73;;
10461;SDS011;5278;42.656;23.374;2024-01-25T14:31:38;4.87;;;2.60;;
10461;SDS011;5278;42.656;23.374;2024-01-25T14:34:06;7.87;;;2.73;;
10461;SDS011;5278;42.656;23.374;2024-01-25T14:36:35;6.07;;;3.03;;
10461;SDS011;5278;42.656;23.374;2024-01-25T14:39:03;7.90;;;2.93;;
10461;SDS011;5278;42.656;23.374;2024-01-25T14:41:32;4.90;;;2.63;;
10461;SDS011;5278;42.656;23.374;2024-01-25T14:43:59;8.03;;;3.17;;
10461;SDS011;5278;42.656;23.374;2024-01-25T14:46:26;8.10;;;2.60;;